sensor_id;sensor_type;location;lat;lon;timestamp;P1;durP1;ratioP1;P2;durP2;ratioP2
16426;SDS011;8322;-33.900;151.170;2023-12-28T00:01:36;1.58;;;0.75;;
16426;SDS011;8322;-33.900;151.170;2023-12-28T00:04:05;1.63;;;0.80;;
16426;SDS011;8322;-33.900;151.170;2023-12-28T00:06:35;3.25;;;0.80;;
16426;SDS011;8322;-33.900;151.170;2023-12-28T00:09:04;2.08;;;0.70;;
16426;SDS011;8322;-33.900;151.170;2023-12-28T00:11:34;0.75;;;0.75;;
16426;SDS011;8322;-33.900;151.170;2023-12-28T00:14:02;1.23;;;0.77;;
16426;SDS011;8322;-33.900;151.170;2023-12-28T00:16:33;2.88;;;0.95;;
16426;SDS011;8322;-33.900;151.170;2023-12-28T00:19:03;1.05;;;0.90;;
16426;SDS011;8322;-33.900;151.170;2023-12-28T00:21:32;2.08;;;1.08;;
16426;SDS011;8322;-33.900;151.170;2023-12-28T00:24:02;1.90;;;1.10;;
16426;SDS011;8322;-33.900;151.170;2023-12-28T00:26:32;0.98;;;0.90;;
16426;SDS011;8322;-33.900;151.170;2023-12-28T00:29:01;2.13;;;1.10;;
16426;SDS011;8322;-33.900;151.170;2023-12-28T00:31:31;1.80;;;1.10;;
16426;SDS011;8322;-33.900;151.170;2023-12-28T00:34:02;3.05;;;0.90;;
16426;SDS011;8322;-33.900;151.170;2023-12-28T00:36:31;3.70;;;1.13;;
16426;SDS011;8322;-33.900;151.170;2023-12-28T00:39:01;2.78;;;1.00;;
16426;SDS011;8322;-33.900;151.170;2023-12-28T00:41:30;1.13;;;0.95;;
16426;SDS011;8322;-33.900;151.170;2023-12-28T00:44:00;3.38;;;1.02;;
16426;SDS011;8322;-33.900;151.170;2023-12-28T00:46:31;3.05;;;1.00;;
16426;SDS011;8322;-33.900;151.170;2023-12-28T00:49:02;4.13;;;1.10;;
16426;SDS011;8322;-33.900;151.170;2023-12-28T00:51:32;1.80;;;0.73;;
16426;SDS011;8322;-33.900;151.170;2023-12-28T00:54:01;1.13;;;0.80;;
16426;SDS011;8322;-33.900;151.170;2023-12-28T00:56:31;2.45;;;0.80;;
16426;SDS011;8322;-33.900;151.170;2023-12-28T00:59:00;2.10;;;1.00;;
16426;SDS011;8322;-33.900;151.170;2023-12-28T01:01:30;2.65;;;1.08;;
16426;SDS011;8322;-33.900;151.170;2023-12-28T01:03:59;2.03;;;0.80;;
16426;SDS011;8322;-33.900;151.170;2023-12-28T01:06:30;3.50;;;0.88;;
16426;SDS011;8322;-33.900;151.170;2023-12-28T01:09:00;2.50;;;0.80;;
16426;SDS011;8322;-33.900;151.170;2023-12-28T01:11:29;2.70;;;0.98;;
16426;SDS011;8322;-33.900;151.170;2023-12-28T01:13:59;1.45;;;0.93;;
16426;SDS011;8322;-33.900;151.170;2023-12-28T01:16:29;2.15;;;1.00;;
16426;SDS011;8322;-33.900;151.170;2023-12-28T01:18:58;4.28;;;0.90;;
16426;SDS011;8322;-33.900;151.170;2023-12-28T01:21:28;1.60;;;0.90;;
16426;SDS011;8322;-33.900;151.170;2023-12-28T01:23:59;2.67;;;1.00;;
16426;SDS011;8322;-33.900;151.170;2023-12-28T01:26:28;2.58;;;0.70;;
16426;SDS011;8322;-33.900;151.170;2023-12-28T01:28:58;2.42;;;0.70;;
16426;SDS011;8322;-33.900;151.170;2023-12-28T01:31:29;1.20;;;0.65;;
16426;SDS011;8322;-33.900;151.170;2023-12-28T01:33:58;1.58;;;0.70;;
16426;SDS011;8322;-33.900;151.170;2023-12-28T01:36:28;3.53;;;0.75;;
16426;SDS011;8322;-33.900;151.170;2023-12-28T01:38:59;2.15;;;0.90;;
16426;SDS011;8322;-33.900;151.170;2023-12-28T01:41:29;4.53;;;1.05;;
16426;SDS011;8322;-33.900;151.170;2023-12-28T01:43:58;3.42;;;0.80;;
16426;SDS011;8322;-33.900;151.170;2023-12-28T01:46:28;3.28;;;1.00;;
16426;SDS011;8322;-33.900;151.170;2023-12-28T01:48:57;3.10;;;0.80;;
16426;SDS011;8322;-33.900;151.170;2023-12-28T01:51:27;1.65;;;0.95;;
16426;SDS011;8322;-33.900;151.170;2023-12-28T01:53:58;3.90;;;1.20;;
16426;SDS011;8322;-33.900;151.170;2023-12-28T01:56:29;2.70;;;0.52;;
16426;SDS011;8322;-33.900;151.170;2023-12-28T01:58:58;2.45;;;0.80;;
16426;SDS011;8322;-33.900;151.170;2023-12-28T02:01:28;4.97;;;0.93;;
16426;SDS011;8322;-33.900;151.170;2023-12-28T02:03:58;1.80;;;0.75;;
16426;SDS011;8322;-33.900;151.170;2023-12-28T02:06:28;2.85;;;0.70;;
16426;SDS011;8322;-33.900;151.170;2023-12-28T02:09:00;2.42;;;0.80;;
16426;SDS011;8322;-33.900;151.170;2023-12-28T02:11:29;3.33;;;1.05;;
16426;SDS011;8322;-33.900;151.170;2023-12-28T02:13:59;3.78;;;0.60;;
16426;SDS011;8322;-33.900;151.170;2023-12-28T02:16:28;3.00;;;0.90;;
16426;SDS011;8322;-33.900;151.170;2023-12-28T02:21:29;2.20;;;0.88;;
16426;SDS011;8322;-33.900;151.170;2023-12-28T02:24:02;3.38;;;0.95;;
16426;SDS011;8322;-33.900;151.170;2023-12-28T02:26:34;1.75;;;0.70;;
16426;SDS011;8322;-33.900;151.170;2023-12-28T02:29:03;4.07;;;0.85;;
16426;SDS011;8322;-33.900;151.170;2023-12-28T02:31:35;6.18;;;0.90;;
16426;SDS011;8322;-33.900;151.170;2023-12-28T02:34:06;2.78;;;0.80;;
16426;SDS011;8322;-33.900;151.170;2023-12-28T02:36:38;2.83;;;0.63;;
16426;SDS011;8322;-33.900;151.170;2023-12-28T02:39:10;2.22;;;0.70;;
16426;SDS011;8322;-33.900;151.170;2023-12-28T02:41:42;4.55;;;0.90;;
16426;SDS011;8322;-33.900;151.170;2023-12-28T02:44:13;5.97;;;0.70;;
16426;SDS011;8322;-33.900;151.170;2023-12-28T02:46:43;1.40;;;0.63;;
16426;SDS011;8322;-33.900;151.170;2023-12-28T02:49:12;2.15;;;0.57;;
16426;SDS011;8322;-33.900;151.170;2023-12-28T02:51:42;1.77;;;0.68;;
16426;SDS011;8322;-33.900;151.170;2023-12-28T02:54:11;2.88;;;0.68;;
16426;SDS011;8322;-33.900;151.170;2023-12-28T02:56:43;2.13;;;0.68;;
16426;SDS011;8322;-33.900;151.170;2023-12-28T02:59:12;3.00;;;0.70;;
16426;SDS011;8322;-33.900;151.170;2023-12-28T03:01:42;2.63;;;0.70;;
16426;SDS011;8322;-33.900;151.170;2023-12-28T03:04:11;2.47;;;0.70;;
16426;SDS011;8322;-33.900;151.170;2023-12-28T03:06:41;2.05;;;0.82;;
16426;SDS011;8322;-33.900;151.170;2023-12-28T03:09:10;2.95;;;0.73;;
16426;SDS011;8322;-33.900;151.170;2023-12-28T03:11:40;1.40;;;0.80;;
16426;SDS011;8322;-33.900;151.170;2023-12-28T03:14:11;1.60;;;0.82;;
16426;SDS011;8322;-33.900;151.170;2023-12-28T03:16:41;2.38;;;0.63;;
16426;SDS011;8322;-33.900;151.170;2023-12-28T03:19:10;1.90;;;0.70;;
16426;SDS011;8322;-33.900;151.170;2023-12-28T03:21:40;1.45;;;0.57;;
16426;SDS011;8322;-33.900;151.170;2023-12-28T03:24:10;3.00;;;0.80;;
16426;SDS011;8322;-33.900;151.170;2023-12-28T03:26:39;2.15;;;0.60;;
16426;SDS011;8322;-33.900;151.170;2023-12-28T03:29:09;1.98;;;0.77;;
16426;SDS011;8322;-33.900;151.170;2023-12-28T03:31:40;0.80;;;0.60;;
16426;SDS011;8322;-33.900;151.170;2023-12-28T03:34:13;1.65;;;0.50;;
16426;SDS011;8322;-33.900;151.170;2023-12-28T03:36:43;3.65;;;0.60;;
16426;SDS011;8322;-33.900;151.170;2023-12-28T03:39:13;1.52;;;0.70;;
16426;SDS011;8322;-33.900;151.170;2023-12-28T03:41:42;1.52;;;0.60;;
16426;SDS011;8322;-33.900;151.170;2023-12-28T03:44:12;3.97;;;0.80;;
16426;SDS011;8322;-33.900;151.170;2023-12-28T03:46:43;1.40;;;0.50;;
16426;SDS011;8322;-33.900;151.170;2023-12-28T03:49:12;3.08;;;0.80;;
16426;SDS011;8322;-33.900;151.170;2023-12-28T03:51:44;2.05;;;0.60;;
16426;SDS011;8322;-33.900;151.170;2023-12-28T03:54:16;1.27;;;0.70;;
16426;SDS011;8322;-33.900;151.170;2023-12-28T03:56:45;1.35;;;0.60;;
16426;SDS011;8322;-33.900;151.170;2023-12-28T03:59:15;4.88;;;0.80;;
16426;SDS011;8322;-33.900;151.170;2023-12-28T04:01:46;3.22;;;0.80;;
16426;SDS011;8322;-33.900;151.170;2023-12-28T04:04:16;0.93;;;0.75;;
16426;SDS011;8322;-33.900;151.170;2023-12-28T04:06:46;1.73;;;0.50;;
16426;SDS011;8322;-33.900;151.170;2023-12-28T04:09:15;2.60;;;0.47;;
16426;SDS011;8322;-33.900;151.170;2023-12-28T04:11:45;3.50;;;0.70;;
16426;SDS011;8322;-33.900;151.170;2023-12-28T04:14:15;2.80;;;0.60;;
16426;SDS011;8322;-33.900;151.170;2023-12-28T04:16:46;1.30;;;0.50;;
16426;SDS011;8322;-33.900;151.170;2023-12-28T04:19:16;1.27;;;0.50;;
16426;SDS011;8322;-33.900;151.170;2023-12-28T04:21:45;1.10;;;0.52;;
16426;SDS011;8322;-33.900;151.170;2023-12-28T04:24:15;1.40;;;0.57;;
16426;SDS011;8322;-33.900;151.170;2023-12-28T04:26:44;2.13;;;0.70;;
16426;SDS011;8322;-33.900;151.170;2023-12-28T04:29:14;1.40;;;0.52;;
16426;SDS011;8322;-33.900;151.170;2023-12-28T04:31:43;2.83;;;0.60;;
16426;SDS011;8322;-33.900;151.170;2023-12-28T04:34:15;0.80;;;0.55;;
16426;SDS011;8322;-33.900;151.170;2023-12-28T04:36:44;3.78;;;0.60;;
16426;SDS011;8322;-33.900;151.170;2023-12-28T04:39:14;3.03;;;0.50;;
16426;SDS011;8322;-33.900;151.170;2023-12-28T04:41:44;1.23;;;0.63;;
16426;SDS011;8322;-33.900;151.170;2023-12-28T04:44:13;1.95;;;0.70;;
16426;SDS011;8322;-33.900;151.170;2023-12-28T04:46:43;2.20;;;0.47;;
16426;SDS011;8322;-33.900;151.170;2023-12-28T04:49:12;2.60;;;0.80;;
16426;SDS011;8322;-33.900;151.170;2023-12-28T04:51:44;1.02;;;0.40;;
16426;SDS011;8322;-33.900;151.170;2023-12-28T04:54:14;1.23;;;0.50;;
16426;SDS011;8322;-33.900;151.170;2023-12-28T04:56:43;2.42;;;0.70;;
16426;SDS011;8322;-33.900;151.170;2023-12-28T04:59:13;1.75;;;1.00;;
16426;SDS011;8322;-33.900;151.170;2023-12-28T05:01:42;1.67;;;0.70;;
16426;SDS011;8322;-33.900;151.170;2023-12-28T05:04:12;1.60;;;0.68;;
16426;SDS011;8322;-33.900;151.170;2023-12-28T05:06:41;3.20;;;1.42;;
16426;SDS011;8322;-33.900;151.170;2023-12-28T05:09:13;2.63;;;0.63;;
16426;SDS011;8322;-33.900;151.170;2023-12-28T05:11:42;2.70;;;0.90;;
16426;SDS011;8322;-33.900;151.170;2023-12-28T05:14:12;0.80;;;0.50;;
16426;SDS011;8322;-33.900;151.170;2023-12-28T05:16:41;1.80;;;0.60;;
16426;SDS011;8322;-33.900;151.170;2023-12-28T05:19:11;1.90;;;0.65;;
16426;SDS011;8322;-33.900;151.170;2023-12-28T05:21:40;3.30;;;1.00;;
16426;SDS011;8322;-33.900;151.170;2023-12-28T05:24:10;3.42;;;0.70;;
16426;SDS011;8322;-33.900;151.170;2023-12-28T05:26:41;3.03;;;0.82;;
16426;SDS011;8322;-33.900;151.170;2023-12-28T05:29:10;2.65;;;0.90;;
16426;SDS011;8322;-33.900;151.170;2023-12-28T05:31:40;4.03;;;0.65;;
16426;SDS011;8322;-33.900;151.170;2023-12-28T05:34:10;1.05;;;0.60;;
16426;SDS011;8322;-33.900;151.170;2023-12-28T05:36:39;2.20;;;0.60;;
16426;SDS011;8322;-33.900;151.170;2023-12-28T05:39:11;3.63;;;0.63;;
16426;SDS011;8322;-33.900;151.170;2023-12-28T05:41:43;2.20;;;0.70;;
16426;SDS011;8322;-33.900;151.170;2023-12-28T05:44:13;4.20;;;0.70;;
16426;SDS011;8322;-33.900;151.170;2023-12-28T05:46:43;3.00;;;0.82;;
16426;SDS011;8322;-33.900;151.170;2023-12-28T05:49:12;2.20;;;0.60;;
16426;SDS011;8322;-33.900;151.170;2023-12-28T05:51:42;4.82;;;0.60;;
16426;SDS011;8322;-33.900;151.170;2023-12-28T05:54:11;1.23;;;0.63;;
16426;SDS011;8322;-33.900;151.170;2023-12-28T05:56:43;2.45;;;0.50;;
16426;SDS011;8322;-33.900;151.170;2023-12-28T05:59:12;1.25;;;0.52;;
16426;SDS011;8322;-33.900;151.170;2023-12-28T06:01:42;1.90;;;0.60;;
16426;SDS011;8322;-33.900;151.170;2023-12-28T06:04:12;1.73;;;0.50;;
16426;SDS011;8322;-33.900;151.170;2023-12-28T06:06:42;3.47;;;0.40;;
16426;SDS011;8322;-33.900;151.170;2023-12-28T06:09:12;2.25;;;0.50;;
16426;SDS011;8322;-33.900;151.170;2023-12-28T06:11:43;2.85;;;0.50;;
16426;SDS011;8322;-33.900;151.170;2023-12-28T06:14:12;1.27;;;0.40;;
16426;SDS011;8322;-33.900;151.170;2023-12-28T06:16:42;0.82;;;0.40;;
16426;SDS011;8322;-33.900;151.170;2023-12-28T06:19:11;4.93;;;0.73;;
16426;SDS011;8322;-33.900;151.170;2023-12-28T06:21:41;3.85;;;0.60;;
16426;SDS011;8322;-33.900;151.170;2023-12-28T06:24:10;1.50;;;0.50;;
16426;SDS011;8322;-33.900;151.170;2023-12-28T06:26:40;1.85;;;0.40;;
16426;SDS011;8322;-33.900;151.170;2023-12-28T06:29:12;1.88;;;0.50;;
16426;SDS011;8322;-33.900;151.170;2023-12-28T06:31:41;1.67;;;0.60;;
16426;SDS011;8322;-33.900;151.170;2023-12-28T06:34:11;1.55;;;0.57;;
16426;SDS011;8322;-33.900;151.170;2023-12-28T06:36:40;2.85;;;0.63;;
16426;SDS011;8322;-33.900;151.170;2023-12-28T06:39:11;0.70;;;0.50;;
16426;SDS011;8322;-33.900;151.170;2023-12-28T06:41:40;2.65;;;0.50;;
16426;SDS011;8322;-33.900;151.170;2023-12-28T06:44:13;1.85;;;0.40;;
16426;SDS011;8322;-33.900;151.170;2023-12-28T06:46:43;2.45;;;0.57;;
16426;SDS011;8322;-33.900;151.170;2023-12-28T06:49:12;1.63;;;0.38;;
16426;SDS011;8322;-33.900;151.170;2023-12-28T06:51:42;2.53;;;0.50;;
16426;SDS011;8322;-33.900;151.170;2023-12-28T06:54:12;1.75;;;0.60;;
16426;SDS011;8322;-33.900;151.170;2023-12-28T06:56:42;1.63;;;0.50;;
16426;SDS011;8322;-33.900;151.170;2023-12-28T06:59:14;1.45;;;0.60;;
16426;SDS011;8322;-33.900;151.170;2023-12-28T07:01:43;3.25;;;0.93;;
16426;SDS011;8322;-33.900;151.170;2023-12-28T07:04:14;2.50;;;0.68;;
16426;SDS011;8322;-33.900;151.170;2023-12-28T07:06:43;2.22;;;0.55;;
16426;SDS011;8322;-33.900;151.170;2023-12-28T07:09:13;1.77;;;0.57;;
16426;SDS011;8322;-33.900;151.170;2023-12-28T07:11:42;4.60;;;0.70;;
16426;SDS011;8322;-33.900;151.170;2023-12-28T07:14:14;2.70;;;0.63;;
16426;SDS011;8322;-33.900;151.170;2023-12-28T07:16:43;1.42;;;0.43;;
16426;SDS011;8322;-33.900;151.170;2023-12-28T07:19:13;0.82;;;0.57;;
16426;SDS011;8322;-33.900;151.170;2023-12-28T07:21:42;1.40;;;0.63;;
16426;SDS011;8322;-33.900;151.170;2023-12-28T07:24:12;1.42;;;0.50;;
16426;SDS011;8322;-33.900;151.170;2023-12-28T07:26:41;0.63;;;0.50;;
16426;SDS011;8322;-33.900;151.170;2023-12-28T07:29:11;2.00;;;0.50;;
16426;SDS011;8322;-33.900;151.170;2023-12-28T07:31:42;3.00;;;0.70;;
16426;SDS011;8322;-33.900;151.170;2023-12-28T07:34:12;1.55;;;1.00;;
16426;SDS011;8322;-33.900;151.170;2023-12-28T07:36:41;1.98;;;0.60;;
16426;SDS011;8322;-33.900;151.170;2023-12-28T07:39:11;1.10;;;0.60;;
16426;SDS011;8322;-33.900;151.170;2023-12-28T07:41:40;2.80;;;0.75;;
16426;SDS011;8322;-33.900;151.170;2023-12-28T07:44:10;1.65;;;0.55;;
16426;SDS011;8322;-33.900;151.170;2023-12-28T07:46:39;1.90;;;0.68;;
16426;SDS011;8322;-33.900;151.170;2023-12-28T07:49:11;2.33;;;0.77;;
16426;SDS011;8322;-33.900;151.170;2023-12-28T07:51:40;3.25;;;0.80;;
16426;SDS011;8322;-33.900;151.170;2023-12-28T07:54:10;2.00;;;0.90;;
16426;SDS011;8322;-33.900;151.170;2023-12-28T07:56:39;1.45;;;0.70;;
16426;SDS011;8322;-33.900;151.170;2023-12-28T07:59:09;3.83;;;1.15;;
16426;SDS011;8322;-33.900;151.170;2023-12-28T08:01:38;1.73;;;0.70;;
16426;SDS011;8322;-33.900;151.170;2023-12-28T08:04:08;2.47;;;0.82;;
16426;SDS011;8322;-33.900;151.170;2023-12-28T08:06:39;2.67;;;0.68;;
16426;SDS011;8322;-33.900;151.170;2023-12-28T08:09:09;2.75;;;0.60;;
16426;SDS011;8322;-33.900;151.170;2023-12-28T08:11:38;2.10;;;1.15;;
16426;SDS011;8322;-33.900;151.170;2023-12-28T08:14:08;2.15;;;0.80;;
16426;SDS011;8322;-33.900;151.170;2023-12-28T08:16:37;2.67;;;0.65;;
16426;SDS011;8322;-33.900;151.170;2023-12-28T08:19:07;1.60;;;0.50;;
16426;SDS011;8322;-33.900;151.170;2023-12-28T08:21:36;2.45;;;0.68;;
16426;SDS011;8322;-33.900;151.170;2023-12-28T08:24:08;1.30;;;0.50;;
16426;SDS011;8322;-33.900;151.170;2023-12-28T08:26:37;1.95;;;0.47;;
16426;SDS011;8322;-33.900;151.170;2023-12-28T08:29:07;0.70;;;0.40;;
16426;SDS011;8322;-33.900;151.170;2023-12-28T08:31:37;2.20;;;0.50;;
16426;SDS011;8322;-33.900;151.170;2023-12-28T08:34:06;1.35;;;0.50;;
16426;SDS011;8322;-33.900;151.170;2023-12-28T08:36:36;1.23;;;0.70;;
16426;SDS011;8322;-33.900;151.170;2023-12-28T08:39:07;3.28;;;0.70;;
16426;SDS011;8322;-33.900;151.170;2023-12-28T08:41:37;1.75;;;0.50;;
16426;SDS011;8322;-33.900;151.170;2023-12-28T08:44:06;2.05;;;0.70;;
16426;SDS011;8322;-33.900;151.170;2023-12-28T08:46:36;3.30;;;0.80;;
16426;SDS011;8322;-33.900;151.170;2023-12-28T08:49:05;1.73;;;1.00;;
16426;SDS011;8322;-33.900;151.170;2023-12-28T08:51:35;3.50;;;0.95;;
16426;SDS011;8322;-33.900;151.170;2023-12-28T08:54:04;1.52;;;0.95;;
16426;SDS011;8322;-33.900;151.170;2023-12-28T08:56:36;2.33;;;0.80;;
16426;SDS011;8322;-33.900;151.170;2023-12-28T08:59:05;2.25;;;0.90;;
16426;SDS011;8322;-33.900;151.170;2023-12-28T09:01:35;2.75;;;0.80;;
16426;SDS011;8322;-33.900;151.170;2023-12-28T09:04:04;3.17;;;0.80;;
16426;SDS011;8322;-33.900;151.170;2023-12-28T09:06:34;1.65;;;0.50;;
16426;SDS011;8322;-33.900;151.170;2023-12-28T09:09:03;3.13;;;0.82;;
16426;SDS011;8322;-33.900;151.170;2023-12-28T09:11:33;1.80;;;1.08;;
16426;SDS011;8322;-33.900;151.170;2023-12-28T09:14:04;3.20;;;0.95;;
16426;SDS011;8322;-33.900;151.170;2023-12-28T09:16:34;2.47;;;0.90;;
16426;SDS011;8322;-33.900;151.170;2023-12-28T09:19:05;1.98;;;0.73;;
16426;SDS011;8322;-33.900;151.170;2023-12-28T09:21:34;4.60;;;1.15;;
16426;SDS011;8322;-33.900;151.170;2023-12-28T09:24:04;2.83;;;2.00;;
16426;SDS011;8322;-33.900;151.170;2023-12-28T09:26:33;3.10;;;0.80;;
16426;SDS011;8322;-33.900;151.170;2023-12-28T09:29:05;3.05;;;0.85;;
16426;SDS011;8322;-33.900;151.170;2023-12-28T09:31:34;4.10;;;1.30;;
16426;SDS011;8322;-33.900;151.170;2023-12-28T09:34:04;1.88;;;1.60;;
16426;SDS011;8322;-33.900;151.170;2023-12-28T09:36:33;3.05;;;1.25;;
16426;SDS011;8322;-33.900;151.170;2023-12-28T09:39:03;2.58;;;1.38;;
16426;SDS011;8322;-33.900;151.170;2023-12-28T09:41:34;2.80;;;0.95;;
16426;SDS011;8322;-33.900;151.170;2023-12-28T09:44:08;2.60;;;0.80;;
16426;SDS011;8322;-33.900;151.170;2023-12-28T09:46:38;2.50;;;0.80;;
16426;SDS011;8322;-33.900;151.170;2023-12-28T09:49:10;1.23;;;0.60;;
16426;SDS011;8322;-33.900;151.170;2023-12-28T09:51:40;1.85;;;0.70;;
16426;SDS011;8322;-33.900;151.170;2023-12-28T09:54:09;3.78;;;0.82;;
16426;SDS011;8322;-33.900;151.170;2023-12-28T09:56:39;4.20;;;1.15;;
16426;SDS011;8322;-33.900;151.170;2023-12-28T09:59:11;3.53;;;1.30;;
16426;SDS011;8322;-33.900;151.170;2023-12-28T10:01:40;3.53;;;0.93;;
16426;SDS011;8322;-33.900;151.170;2023-12-28T10:04:10;3.42;;;0.80;;
16426;SDS011;8322;-33.900;151.170;2023-12-28T10:06:39;1.58;;;0.90;;
16426;SDS011;8322;-33.900;151.170;2023-12-28T10:09:09;2.70;;;0.93;;
16426;SDS011;8322;-33.900;151.170;2023-12-28T10:11:39;3.95;;;0.98;;
16426;SDS011;8322;-33.900;151.170;2023-12-28T10:14:11;2.58;;;0.85;;
16426;SDS011;8322;-33.900;151.170;2023-12-28T10:16:41;3.33;;;1.05;;
16426;SDS011;8322;-33.900;151.170;2023-12-28T10:19:10;2.10;;;0.80;;
16426;SDS011;8322;-33.900;151.170;2023-12-28T10:21:40;2.60;;;0.82;;
16426;SDS011;8322;-33.900;151.170;2023-12-28T10:24:10;2.50;;;0.85;;
16426;SDS011;8322;-33.900;151.170;2023-12-28T10:26:39;3.15;;;0.93;;
16426;SDS011;8322;-33.900;151.170;2023-12-28T10:29:11;3.75;;;1.13;;
16426;SDS011;8322;-33.900;151.170;2023-12-28T10:31:42;1.80;;;0.70;;
16426;SDS011;8322;-33.900;151.170;2023-12-28T10:34:15;2.70;;;0.80;;
16426;SDS011;8322;-33.900;151.170;2023-12-28T10:36:44;2.88;;;1.00;;
16426;SDS011;8322;-33.900;151.170;2023-12-28T10:39:15;3.05;;;0.82;;
16426;SDS011;8322;-33.900;151.170;2023-12-28T10:41:46;3.75;;;0.98;;
16426;SDS011;8322;-33.900;151.170;2023-12-28T10:44:19;2.35;;;0.80;;
16426;SDS011;8322;-33.900;151.170;2023-12-28T10:46:50;1.88;;;0.98;;
16426;SDS011;8322;-33.900;151.170;2023-12-28T10:49:20;4.68;;;2.28;;
16426;SDS011;8322;-33.900;151.170;2023-12-28T10:51:51;6.25;;;1.80;;
16426;SDS011;8322;-33.900;151.170;2023-12-28T10:54:23;4.25;;;1.38;;
16426;SDS011;8322;-33.900;151.170;2023-12-28T10:56:59;2.95;;;1.33;;
16426;SDS011;8322;-33.900;151.170;2023-12-28T10:59:35;5.50;;;1.60;;
16426;SDS011;8322;-33.900;151.170;2023-12-28T11:02:08;2.85;;;1.48;;
16426;SDS011;8322;-33.900;151.170;2023-12-28T11:04:40;2.83;;;1.13;;
16426;SDS011;8322;-33.900;151.170;2023-12-28T11:07:10;3.10;;;1.35;;
16426;SDS011;8322;-33.900;151.170;2023-12-28T11:09:40;2.92;;;1.30;;
16426;SDS011;8322;-33.900;151.170;2023-12-28T11:12:10;4.93;;;1.48;;
16426;SDS011;8322;-33.900;151.170;2023-12-28T11:14:42;2.55;;;1.30;;
16426;SDS011;8322;-33.900;151.170;2023-12-28T11:17:11;6.55;;;1.52;;
16426;SDS011;8322;-33.900;151.170;2023-12-28T11:19:42;4.60;;;1.13;;
16426;SDS011;8322;-33.900;151.170;2023-12-28T11:22:12;3.33;;;1.10;;
16426;SDS011;8322;-33.900;151.170;2023-12-28T11:24:42;1.95;;;1.10;;
16426;SDS011;8322;-33.900;151.170;2023-12-28T11:27:12;3.60;;;1.48;;
16426;SDS011;8322;-33.900;151.170;2023-12-28T11:29:44;2.17;;;1.10;;
16426;SDS011;8322;-33.900;151.170;2023-12-28T11:32:14;4.53;;;2.03;;
16426;SDS011;8322;-33.900;151.170;2023-12-28T11:34:43;4.90;;;1.55;;
16426;SDS011;8322;-33.900;151.170;2023-12-28T11:37:13;4.85;;;1.67;;
16426;SDS011;8322;-33.900;151.170;2023-12-28T11:39:44;3.25;;;1.40;;
16426;SDS011;8322;-33.900;151.170;2023-12-28T11:42:18;3.55;;;1.50;;
16426;SDS011;8322;-33.900;151.170;2023-12-28T11:44:53;3.72;;;1.23;;
16426;SDS011;8322;-33.900;151.170;2023-12-28T11:47:23;1.52;;;0.90;;
16426;SDS011;8322;-33.900;151.170;2023-12-28T11:49:53;3.05;;;1.13;;
16426;SDS011;8322;-33.900;151.170;2023-12-28T11:52:23;2.75;;;1.02;;
16426;SDS011;8322;-33.900;151.170;2023-12-28T11:54:53;4.05;;;1.20;;
16426;SDS011;8322;-33.900;151.170;2023-12-28T11:57:22;1.65;;;0.90;;
16426;SDS011;8322;-33.900;151.170;2023-12-28T11:59:57;6.00;;;1.33;;
16426;SDS011;8322;-33.900;151.170;2023-12-28T12:02:26;2.88;;;1.40;;
16426;SDS011;8322;-33.900;151.170;2023-12-28T12:04:56;2.33;;;1.17;;
16426;SDS011;8322;-33.900;151.170;2023-12-28T12:07:27;3.03;;;1.50;;
16426;SDS011;8322;-33.900;151.170;2023-12-28T12:09:57;3.83;;;1.40;;
16426;SDS011;8322;-33.900;151.170;2023-12-28T12:12:26;3.45;;;1.30;;
16426;SDS011;8322;-33.900;151.170;2023-12-28T12:14:59;2.80;;;1.23;;
16426;SDS011;8322;-33.900;151.170;2023-12-28T12:17:29;3.72;;;1.23;;
16426;SDS011;8322;-33.900;151.170;2023-12-28T12:19:58;3.85;;;1.38;;
16426;SDS011;8322;-33.900;151.170;2023-12-28T12:22:29;4.35;;;1.23;;
16426;SDS011;8322;-33.900;151.170;2023-12-28T12:25:00;2.72;;;1.13;;
16426;SDS011;8322;-33.900;151.170;2023-12-28T12:27:31;3.05;;;1.20;;
16426;SDS011;8322;-33.900;151.170;2023-12-28T12:30:03;1.95;;;0.93;;
16426;SDS011;8322;-33.900;151.170;2023-12-28T12:32:33;3.15;;;1.20;;
16426;SDS011;8322;-33.900;151.170;2023-12-28T12:35:03;2.65;;;1.00;;
16426;SDS011;8322;-33.900;151.170;2023-12-28T12:37:33;3.38;;;0.93;;
16426;SDS011;8322;-33.900;151.170;2023-12-28T12:40:03;2.60;;;1.10;;
16426;SDS011;8322;-33.900;151.170;2023-12-28T12:42:34;2.22;;;1.00;;
16426;SDS011;8322;-33.900;151.170;2023-12-28T12:45:06;2.53;;;0.80;;
16426;SDS011;8322;-33.900;151.170;2023-12-28T12:47:35;3.45;;;1.08;;
16426;SDS011;8322;-33.900;151.170;2023-12-28T12:50:05;2.30;;;0.90;;
16426;SDS011;8322;-33.900;151.170;2023-12-28T12:52:35;4.25;;;1.10;;
16426;SDS011;8322;-33.900;151.170;2023-12-28T12:55:05;2.58;;;1.17;;
16426;SDS011;8322;-33.900;151.170;2023-12-28T12:57:35;2.22;;;0.90;;
16426;SDS011;8322;-33.900;151.170;2023-12-28T13:00:08;2.22;;;0.88;;
16426;SDS011;8322;-33.900;151.170;2023-12-28T13:02:38;2.13;;;1.00;;
16426;SDS011;8322;-33.900;151.170;2023-12-28T13:05:07;4.78;;;0.95;;
16426;SDS011;8322;-33.900;151.170;2023-12-28T13:07:37;1.80;;;0.73;;
16426;SDS011;8322;-33.900;151.170;2023-12-28T13:10:07;2.03;;;0.95;;
16426;SDS011;8322;-33.900;151.170;2023-12-28T13:12:36;3.20;;;0.90;;
16426;SDS011;8322;-33.900;151.170;2023-12-28T13:15:08;3.28;;;1.10;;
16426;SDS011;8322;-33.900;151.170;2023-12-28T13:17:38;1.88;;;1.00;;
16426;SDS011;8322;-33.900;151.170;2023-12-28T13:20:08;3.45;;;0.90;;
16426;SDS011;8322;-33.900;151.170;2023-12-28T13:22:38;1.83;;;0.90;;
16426;SDS011;8322;-33.900;151.170;2023-12-28T13:25:07;1.58;;;0.80;;
16426;SDS011;8322;-33.900;151.170;2023-12-28T13:27:37;3.95;;;1.60;;
16426;SDS011;8322;-33.900;151.170;2023-12-28T13:30:09;3.53;;;1.15;;
16426;SDS011;8322;-33.900;151.170;2023-12-28T13:32:38;2.22;;;0.95;;
16426;SDS011;8322;-33.900;151.170;2023-12-28T13:35:08;3.40;;;1.08;;
16426;SDS011;8322;-33.900;151.170;2023-12-28T13:37:37;2.58;;;1.13;;
16426;SDS011;8322;-33.900;151.170;2023-12-28T13:40:07;4.05;;;1.00;;
16426;SDS011;8322;-33.900;151.170;2023-12-28T13:42:37;2.53;;;1.00;;
16426;SDS011;8322;-33.900;151.170;2023-12-28T13:45:09;3.38;;;1.10;;
16426;SDS011;8322;-33.900;151.170;2023-12-28T13:47:38;4.55;;;1.10;;
16426;SDS011;8322;-33.900;151.170;2023-12-28T13:50:08;3.28;;;1.10;;
16426;SDS011;8322;-33.900;151.170;2023-12-28T13:52:39;4.55;;;1.20;;
16426;SDS011;8322;-33.900;151.170;2023-12-28T13:55:08;3.83;;;1.05;;
16426;SDS011;8322;-33.900;151.170;2023-12-28T13:57:38;1.75;;;1.00;;
16426;SDS011;8322;-33.900;151.170;2023-12-28T14:00:09;3.50;;;0.80;;
16426;SDS011;8322;-33.900;151.170;2023-12-28T14:02:39;3.88;;;1.10;;
16426;SDS011;8322;-33.900;151.170;2023-12-28T14:05:09;3.45;;;1.10;;
16426;SDS011;8322;-33.900;151.170;2023-12-28T14:07:38;3.03;;;1.00;;
16426;SDS011;8322;-33.900;151.170;2023-12-28T14:10:08;2.38;;;0.90;;
16426;SDS011;8322;-33.900;151.170;2023-12-28T14:12:37;2.67;;;0.80;;
16426;SDS011;8322;-33.900;151.170;2023-12-28T14:15:09;2.20;;;0.90;;
16426;SDS011;8322;-33.900;151.170;2023-12-28T14:17:41;1.85;;;0.90;;
16426;SDS011;8322;-33.900;151.170;2023-12-28T14:20:11;3.00;;;1.00;;
16426;SDS011;8322;-33.900;151.170;2023-12-28T14:22:40;2.05;;;0.82;;
16426;SDS011;8322;-33.900;151.170;2023-12-28T14:25:10;3.30;;;1.65;;
16426;SDS011;8322;-33.900;151.170;2023-12-28T14:27:40;4.80;;;1.50;;
16426;SDS011;8322;-33.900;151.170;2023-12-28T14:30:12;3.58;;;1.10;;
16426;SDS011;8322;-33.900;151.170;2023-12-28T14:32:42;3.88;;;1.67;;
16426;SDS011;8322;-33.900;151.170;2023-12-28T14:35:12;6.07;;;3.58;;
16426;SDS011;8322;-33.900;151.170;2023-12-28T14:37:43;4.93;;;1.70;;
16426;SDS011;8322;-33.900;151.170;2023-12-28T14:40:13;2.50;;;1.08;;